PWSweather.com
Personal Weather Stations
Station Observations
SEVANL01
SevillaES 41004

SevillaES 41004

Lat: 37.383633, Lon: -5.985787

Elevation: 19.685

Station Type: Davis Vantage Pro2

Latest ConditionsUpdated 12:00:00 PM GMT+01:01 Monday, Apr 24, 2017
Currently Today's Max Today's Min Today's Average
Temperature 72.1°F22.3°C 72.1°F22.3°C 61.0°F16.1°C 63.9°F17.7°C
Dew Point 54.6°F12.6°C 56.4°F13.6°C 53.5°F11.9°C 55.0°F12.8°C
Winds 3.0 mph E4.8 kmh E 4.0 mph SSW6.4 kmh SSW - 2.2 mph 3.5 kmh
Wind Gusts 13.0 mph20.9 kmh 13.0 mph20.9 kmh - -
Humidity 54% 82% 54% 73%
Pressure 29.96 in1014.6 mb 29.98 in1015.2 mb 29.95 in1014.2 mb -
Hour Temp Dew Point Humidity Winds Wind Gusts Pressure Precip Precip Rate Daily Precip Total
12:00 PM 72.1°F22.3°C 54.6°F12.6°C 54% 3.0 mph E4.8 kmh E 13.0 mph20.9 kmh 29.96 in1014.6 mb 0.00 in0.0 mm 0.00 in0.0 mm 0.00 in0.0 mm
11:40 AM 71.2°F21.8°C 54.7°F12.6°C 56% 3.0 mph ENE4.8 kmh ENE 8.0 mph12.9 kmh 29.97 in1014.9 mb 0.00 in0.0 mm 0.00 in0.0 mm 0.00 in0.0 mm
11:20 AM 70.5°F21.4°C 55.0°F12.8°C 58% 2.0 mph NE3.2 kmh NE 6.0 mph9.7 kmh 29.97 in1014.9 mb 0.00 in0.0 mm 0.00 in0.0 mm 0.00 in0.0 mm
11:00 AM 68.5°F20.3°C 55.0°F12.8°C 62% 3.0 mph N4.8 kmh N 6.0 mph9.7 kmh 29.98 in1015.2 mb 0.00 in0.0 mm 0.00 in0.0 mm 0.00 in0.0 mm
10:40 AM 68.2°F20.1°C 55.5°F13.1°C 64% 3.0 mph N4.8 kmh N 7.0 mph11.3 kmh 29.97 in1014.9 mb 0.00 in0.0 mm 0.00 in0.0 mm 0.00 in0.0 mm
10:20 AM 66.9°F19.4°C 56.4°F13.6°C 69% 4.0 mph ENE6.4 kmh ENE 9.0 mph14.5 kmh 29.97 in1014.9 mb 0.00 in0.0 mm 0.00 in0.0 mm 0.00 in0.0 mm
10:00 AM 65.7°F18.7°C 56.0°F13.3°C 71% 4.0 mph NNE6.4 kmh NNE 9.0 mph14.5 kmh 29.98 in1015.2 mb 0.00 in0.0 mm 0.00 in0.0 mm 0.00 in0.0 mm
09:40 AM 64.9°F18.3°C 55.7°F13.2°C 72% 3.0 mph N4.8 kmh N 7.0 mph11.3 kmh 29.98 in1015.2 mb 0.00 in0.0 mm 0.00 in0.0 mm 0.00 in0.0 mm
09:20 AM 64.0°F17.8°C 55.6°F13.1°C 74% 4.0 mph N6.4 kmh N 6.0 mph9.7 kmh 29.98 in1015.2 mb 0.00 in0.0 mm 0.00 in0.0 mm 0.00 in0.0 mm
09:00 AM 63.3°F17.4°C 55.6°F13.1°C 76% 4.0 mph NNE6.4 kmh NNE 8.0 mph12.9 kmh 29.98 in1015.2 mb 0.00 in0.0 mm 0.00 in0.0 mm 0.00 in0.0 mm
08:40 AM 63.1°F17.3°C 55.4°F13.0°C 76% 3.0 mph N4.8 kmh N 7.0 mph11.3 kmh 29.98 in1015.2 mb 0.00 in0.0 mm 0.00 in0.0 mm 0.00 in0.0 mm
08:20 AM 63.3°F17.4°C 55.3°F12.9°C 75% Calm Calm 5.0 mph8.0 kmh 29.98 in1015.2 mb 0.00 in0.0 mm 0.00 in0.0 mm 0.00 in0.0 mm
08:00 AM 62.1°F16.7°C 55.5°F13.1°C 79% 1.0 mph WSW1.6 kmh WSW 2.0 mph3.2 kmh 29.98 in1015.2 mb 0.00 in0.0 mm 0.00 in0.0 mm 0.00 in0.0 mm
07:40 AM 61.2°F16.2°C 54.9°F12.7°C 80% Calm Calm 2.0 mph3.2 kmh 29.97 in1014.9 mb 0.00 in0.0 mm 0.00 in0.0 mm 0.00 in0.0 mm
07:20 AM 61.0°F16.1°C 55.4°F13.0°C 82% 1.0 mph SW1.6 kmh SW 3.0 mph4.8 kmh 29.97 in1014.9 mb 0.00 in0.0 mm 0.00 in0.0 mm 0.00 in0.0 mm
07:00 AM 61.0°F16.1°C 55.4°F13.0°C 82% 1.0 mph SW1.6 kmh SW 3.0 mph4.8 kmh 29.96 in1014.6 mb 0.00 in0.0 mm 0.00 in0.0 mm 0.00 in0.0 mm
06:40 AM 61.0°F16.1°C 55.4°F13.0°C 82% 2.0 mph S3.2 kmh S 3.0 mph4.8 kmh 29.96 in1014.6 mb 0.00 in0.0 mm 0.00 in0.0 mm 0.00 in0.0 mm
06:20 AM 61.2°F16.2°C 55.3°F12.9°C 81% 1.0 mph SW1.6 kmh SW 3.0 mph4.8 kmh 29.96 in1014.6 mb 0.00 in0.0 mm 0.00 in0.0 mm 0.00 in0.0 mm
06:00 AM 61.3°F16.3°C 55.1°F12.8°C 80% 2.0 mph SW3.2 kmh SW 5.0 mph8.0 kmh 29.96 in1014.6 mb 0.00 in0.0 mm 0.00 in0.0 mm 0.00 in0.0 mm
05:40 AM 61.7°F16.5°C 55.1°F12.8°C 79% 2.0 mph SW3.2 kmh SW 4.0 mph6.4 kmh 29.96 in1014.6 mb 0.00 in0.0 mm 0.00 in0.0 mm 0.00 in0.0 mm
05:20 AM 61.7°F16.5°C 55.5°F13.1°C 80% 1.0 mph SW1.6 kmh SW 3.0 mph4.8 kmh 29.96 in1014.6 mb 0.00 in0.0 mm 0.00 in0.0 mm 0.00 in0.0 mm
05:00 AM 61.9°F16.6°C 55.3°F12.9°C 79% 2.0 mph SW3.2 kmh SW 5.0 mph8.0 kmh 29.96 in1014.6 mb 0.00 in0.0 mm 0.00 in0.0 mm 0.00 in0.0 mm
04:40 AM 61.9°F16.6°C 55.3°F12.9°C 79% 2.0 mph SW3.2 kmh SW 6.0 mph9.7 kmh 29.95 in1014.2 mb 0.00 in0.0 mm 0.00 in0.0 mm 0.00 in0.0 mm
04:20 AM 61.5°F16.4°C 54.9°F12.7°C 79% 2.0 mph SW3.2 kmh SW 5.0 mph8.0 kmh 29.95 in1014.2 mb 0.00 in0.0 mm 0.00 in0.0 mm 0.00 in0.0 mm
04:00 AM 61.5°F16.4°C 54.9°F12.7°C 79% 1.0 mph SW1.6 kmh SW 5.0 mph8.0 kmh 29.96 in1014.6 mb 0.00 in0.0 mm 0.00 in0.0 mm 0.00 in0.0 mm
03:40 AM 61.3°F16.3°C 54.8°F12.7°C 79% 2.0 mph SSW3.2 kmh SSW 5.0 mph8.0 kmh 29.96 in1014.6 mb 0.00 in0.0 mm 0.00 in0.0 mm 0.00 in0.0 mm
03:20 AM 61.3°F16.3°C 54.4°F12.4°C 78% 3.0 mph SSW4.8 kmh SSW 6.0 mph9.7 kmh 29.96 in1014.6 mb 0.00 in0.0 mm 0.00 in0.0 mm 0.00 in0.0 mm
03:00 AM 61.5°F16.4°C 53.9°F12.2°C 76% 2.0 mph SSW3.2 kmh SSW 6.0 mph9.7 kmh 29.96 in1014.6 mb 0.00 in0.0 mm 0.00 in0.0 mm 0.00 in0.0 mm
02:40 AM 62.2°F16.8°C 54.2°F12.3°C 75% 2.0 mph SW3.2 kmh SW 6.0 mph9.7 kmh 29.96 in1014.6 mb 0.00 in0.0 mm 0.00 in0.0 mm 0.00 in0.0 mm
02:20 AM 63.0°F17.2°C 54.2°F12.3°C 73% 2.0 mph SSW3.2 kmh SSW 5.0 mph8.0 kmh 29.97 in1014.9 mb 0.00 in0.0 mm 0.00 in0.0 mm 0.00 in0.0 mm
02:00 AM 63.0°F17.2°C 54.2°F12.3°C 73% 2.0 mph SW3.2 kmh SW 4.0 mph6.4 kmh 29.97 in1014.9 mb 0.00 in0.0 mm 0.00 in0.0 mm 0.00 in0.0 mm
01:40 AM 63.1°F17.3°C 54.0°F12.2°C 72% 2.0 mph SW3.2 kmh SW 5.0 mph8.0 kmh 29.98 in1015.2 mb 0.00 in0.0 mm 0.00 in0.0 mm 0.00 in0.0 mm
01:20 AM 63.3°F17.4°C 54.1°F12.3°C 72% 3.0 mph SSW4.8 kmh SSW 6.0 mph9.7 kmh 29.98 in1015.2 mb 0.00 in0.0 mm 0.00 in0.0 mm 0.00 in0.0 mm
01:00 AM 64.0°F17.8°C 54.1°F12.3°C 70% 4.0 mph SSW6.4 kmh SSW 7.0 mph11.3 kmh 29.98 in1015.2 mb 0.00 in0.0 mm 0.00 in0.0 mm 0.00 in0.0 mm
12:40 AM 65.7°F18.7°C 54.8°F12.7°C 68% 3.0 mph SW4.8 kmh SW 7.0 mph11.3 kmh 29.97 in1014.9 mb 0.00 in0.0 mm 0.00 in0.0 mm 0.00 in0.0 mm
12:20 AM 67.5°F19.7°C 54.9°F12.7°C 64% 1.0 mph SW1.6 kmh SW 5.0 mph8.0 kmh 29.96 in1014.6 mb 0.00 in0.0 mm 0.00 in0.0 mm 0.00 in0.0 mm
12:00 AM 68.4°F20.2°C 53.5°F11.9°C 59% 1.0 mph SW1.6 kmh SW 4.0 mph6.4 kmh 29.96 in1014.6 mb 0.00 in0.0 mm 0.00 in0.0 mm 0.00 in0.0 mm